sensor_id;sensor_type;location;lat;lon;timestamp;P1;durP1;ratioP1;P2;durP2;ratioP2
51981;SDS011;37998;53.416;6.730;2022-11-20T00:00:02;9.65;;;7.15;;
51981;SDS011;37998;53.416;6.730;2022-11-20T00:02:29;10.65;;;7.88;;
51981;SDS011;37998;53.416;6.730;2022-11-20T00:04:55;9.73;;;7.72;;
51981;SDS011;37998;53.416;6.730;2022-11-20T00:07:20;9.43;;;7.13;;
51981;SDS011;37998;53.416;6.730;2022-11-20T00:09:46;8.85;;;7.00;;
51981;SDS011;37998;53.416;6.730;2022-11-20T00:12:11;8.35;;;6.78;;
51981;SDS011;37998;53.416;6.730;2022-11-20T00:14:37;9.98;;;7.10;;
51981;SDS011;37998;53.416;6.730;2022-11-20T00:17:03;9.88;;;7.60;;
51981;SDS011;37998;53.416;6.730;2022-11-20T00:19:28;10.63;;;7.55;;
51981;SDS011;37998;53.416;6.730;2022-11-20T00:21:54;10.10;;;7.03;;
51981;SDS011;37998;53.416;6.730;2022-11-20T00:24:20;9.77;;;7.60;;
51981;SDS011;37998;53.416;6.730;2022-11-20T00:26:46;7.90;;;6.35;;
51981;SDS011;37998;53.416;6.730;2022-11-20T00:29:12;10.10;;;7.28;;
51981;SDS011;37998;53.416;6.730;2022-11-20T00:31:37;13.20;;;7.65;;
51981;SDS011;37998;53.416;6.730;2022-11-20T00:34:03;8.80;;;7.18;;
51981;SDS011;37998;53.416;6.730;2022-11-20T00:36:31;8.95;;;6.65;;
51981;SDS011;37998;53.416;6.730;2022-11-20T00:38:58;7.53;;;6.72;;
51981;SDS011;37998;53.416;6.730;2022-11-20T00:41:24;9.05;;;6.90;;
51981;SDS011;37998;53.416;6.730;2022-11-20T00:43:52;10.55;;;6.90;;
51981;SDS011;37998;53.416;6.730;2022-11-20T00:46:20;9.73;;;6.97;;
51981;SDS011;37998;53.416;6.730;2022-11-20T00:48:47;11.15;;;7.85;;
51981;SDS011;37998;53.416;6.730;2022-11-20T00:51:14;12.43;;;8.48;;
51981;SDS011;37998;53.416;6.730;2022-11-20T00:53:42;13.45;;;8.68;;
51981;SDS011;37998;53.416;6.730;2022-11-20T00:56:09;10.93;;;8.40;;
51981;SDS011;37998;53.416;6.730;2022-11-20T00:58:37;10.90;;;8.35;;
51981;SDS011;37998;53.416;6.730;2022-11-20T01:01:05;11.02;;;8.55;;
51981;SDS011;37998;53.416;6.730;2022-11-20T01:03:32;13.63;;;8.25;;
51981;SDS011;37998;53.416;6.730;2022-11-20T01:06:00;12.68;;;8.95;;
51981;SDS011;37998;53.416;6.730;2022-11-20T01:08:29;14.27;;;8.45;;
51981;SDS011;37998;53.416;6.730;2022-11-20T01:11:01;13.20;;;9.63;;
51981;SDS011;37998;53.416;6.730;2022-11-20T01:13:29;13.05;;;9.30;;
51981;SDS011;37998;53.416;6.730;2022-11-20T01:16:05;14.32;;;9.23;;
51981;SDS011;37998;53.416;6.730;2022-11-20T01:18:33;14.95;;;11.10;;
51981;SDS011;37998;53.416;6.730;2022-11-20T01:21:00;14.43;;;10.50;;
51981;SDS011;37998;53.416;6.730;2022-11-20T01:23:29;17.75;;;11.85;;
51981;SDS011;37998;53.416;6.730;2022-11-20T01:25:56;15.52;;;11.23;;
51981;SDS011;37998;53.416;6.730;2022-11-20T01:28:22;13.85;;;10.85;;
51981;SDS011;37998;53.416;6.730;2022-11-20T01:30:47;14.27;;;10.27;;
51981;SDS011;37998;53.416;6.730;2022-11-20T01:33:13;14.85;;;9.43;;
51981;SDS011;37998;53.416;6.730;2022-11-20T01:35:38;12.00;;;9.55;;
51981;SDS011;37998;53.416;6.730;2022-11-20T01:38:04;11.32;;;9.05;;
51981;SDS011;37998;53.416;6.730;2022-11-20T01:40:30;14.27;;;9.45;;
51981;SDS011;37998;53.416;6.730;2022-11-20T01:43:00;12.30;;;8.63;;
51981;SDS011;37998;53.416;6.730;2022-11-20T01:48:25;13.10;;;8.10;;
51981;SDS011;37998;53.416;6.730;2022-11-20T01:50:55;11.23;;;7.43;;
51981;SDS011;37998;53.416;6.730;2022-11-20T01:53:23;10.38;;;8.50;;
51981;SDS011;37998;53.416;6.730;2022-11-20T01:55:53;10.30;;;8.00;;
51981;SDS011;37998;53.416;6.730;2022-11-20T01:58:22;11.48;;;8.25;;
51981;SDS011;37998;53.416;6.730;2022-11-20T02:00:53;12.15;;;8.00;;
51981;SDS011;37998;53.416;6.730;2022-11-20T02:03:19;11.30;;;8.43;;
51981;SDS011;37998;53.416;6.730;2022-11-20T02:05:47;13.20;;;8.43;;
51981;SDS011;37998;53.416;6.730;2022-11-20T02:08:19;12.02;;;7.93;;
51981;SDS011;37998;53.416;6.730;2022-11-20T02:10:45;12.40;;;8.27;;
51981;SDS011;37998;53.416;6.730;2022-11-20T02:13:10;11.25;;;8.45;;
51981;SDS011;37998;53.416;6.730;2022-11-20T02:15:55;15.50;;;8.57;;
51981;SDS011;37998;53.416;6.730;2022-11-20T02:18:21;12.52;;;8.65;;
51981;SDS011;37998;53.416;6.730;2022-11-20T02:20:48;13.38;;;8.75;;
51981;SDS011;37998;53.416;6.730;2022-11-20T02:23:28;13.70;;;9.00;;
51981;SDS011;37998;53.416;6.730;2022-11-20T02:26:03;13.50;;;8.95;;
51981;SDS011;37998;53.416;6.730;2022-11-20T02:28:32;11.07;;;8.32;;
51981;SDS011;37998;53.416;6.730;2022-11-20T02:30:58;13.27;;;8.85;;
51981;SDS011;37998;53.416;6.730;2022-11-20T02:33:23;11.27;;;8.35;;
51981;SDS011;37998;53.416;6.730;2022-11-20T02:35:49;11.32;;;7.88;;
51981;SDS011;37998;53.416;6.730;2022-11-20T02:38:15;11.95;;;8.93;;
51981;SDS011;37998;53.416;6.730;2022-11-20T02:40:41;12.13;;;8.50;;
51981;SDS011;37998;53.416;6.730;2022-11-20T02:43:07;13.82;;;10.07;;
51981;SDS011;37998;53.416;6.730;2022-11-20T02:45:34;13.15;;;9.48;;
51981;SDS011;37998;53.416;6.730;2022-11-20T02:48:00;12.50;;;9.10;;
51981;SDS011;37998;53.416;6.730;2022-11-20T02:50:25;12.20;;;9.32;;
51981;SDS011;37998;53.416;6.730;2022-11-20T02:52:51;12.52;;;9.25;;
51981;SDS011;37998;53.416;6.730;2022-11-20T02:55:17;12.90;;;9.70;;
51981;SDS011;37998;53.416;6.730;2022-11-20T02:57:43;13.65;;;9.68;;
51981;SDS011;37998;53.416;6.730;2022-11-20T03:00:08;15.52;;;9.82;;
51981;SDS011;37998;53.416;6.730;2022-11-20T03:02:34;16.02;;;9.85;;
51981;SDS011;37998;53.416;6.730;2022-11-20T03:05:00;12.95;;;9.98;;
51981;SDS011;37998;53.416;6.730;2022-11-20T03:07:26;11.45;;;9.40;;
51981;SDS011;37998;53.416;6.730;2022-11-20T03:09:51;12.77;;;10.00;;
51981;SDS011;37998;53.416;6.730;2022-11-20T03:12:17;11.65;;;9.13;;
51981;SDS011;37998;53.416;6.730;2022-11-20T03:14:42;13.25;;;9.63;;
51981;SDS011;37998;53.416;6.730;2022-11-20T03:17:08;12.63;;;8.90;;
51981;SDS011;37998;53.416;6.730;2022-11-20T03:19:34;12.52;;;9.38;;
51981;SDS011;37998;53.416;6.730;2022-11-20T03:22:00;11.68;;;8.63;;
51981;SDS011;37998;53.416;6.730;2022-11-20T03:24:26;11.35;;;8.70;;
51981;SDS011;37998;53.416;6.730;2022-11-20T03:26:51;10.65;;;8.02;;
51981;SDS011;37998;53.416;6.730;2022-11-20T03:29:17;11.88;;;8.30;;
51981;SDS011;37998;53.416;6.730;2022-11-20T03:31:43;12.05;;;8.27;;
51981;SDS011;37998;53.416;6.730;2022-11-20T03:34:09;13.30;;;9.27;;
51981;SDS011;37998;53.416;6.730;2022-11-20T03:36:39;11.10;;;8.95;;
51981;SDS011;37998;53.416;6.730;2022-11-20T03:39:06;11.05;;;8.73;;
51981;SDS011;37998;53.416;6.730;2022-11-20T03:41:35;11.60;;;8.15;;
51981;SDS011;37998;53.416;6.730;2022-11-20T03:44:02;12.05;;;8.82;;
51981;SDS011;37998;53.416;6.730;2022-11-20T03:46:29;12.95;;;8.75;;
51981;SDS011;37998;53.416;6.730;2022-11-20T03:48:55;12.50;;;8.90;;
51981;SDS011;37998;53.416;6.730;2022-11-20T03:51:22;12.35;;;9.45;;
51981;SDS011;37998;53.416;6.730;2022-11-20T03:53:53;11.50;;;9.32;;
51981;SDS011;37998;53.416;6.730;2022-11-20T03:56:22;12.10;;;8.80;;
51981;SDS011;37998;53.416;6.730;2022-11-20T03:58:50;13.27;;;9.30;;
51981;SDS011;37998;53.416;6.730;2022-11-20T04:01:16;11.88;;;8.82;;
51981;SDS011;37998;53.416;6.730;2022-11-20T04:03:44;13.40;;;8.77;;
51981;SDS011;37998;53.416;6.730;2022-11-20T04:06:20;12.68;;;9.38;;
51981;SDS011;37998;53.416;6.730;2022-11-20T04:08:58;13.50;;;8.98;;
51981;SDS011;37998;53.416;6.730;2022-11-20T04:11:25;14.07;;;8.82;;
51981;SDS011;37998;53.416;6.730;2022-11-20T04:13:55;15.45;;;9.20;;
51981;SDS011;37998;53.416;6.730;2022-11-20T04:16:23;13.57;;;9.63;;
51981;SDS011;37998;53.416;6.730;2022-11-20T04:18:53;11.73;;;8.73;;
51981;SDS011;37998;53.416;6.730;2022-11-20T04:21:19;12.20;;;9.77;;
51981;SDS011;37998;53.416;6.730;2022-11-20T04:23:45;12.10;;;9.88;;
51981;SDS011;37998;53.416;6.730;2022-11-20T04:26:11;14.80;;;10.68;;
51981;SDS011;37998;53.416;6.730;2022-11-20T04:28:37;15.75;;;10.15;;
51981;SDS011;37998;53.416;6.730;2022-11-20T04:31:14;12.80;;;10.10;;
51981;SDS011;37998;53.416;6.730;2022-11-20T04:33:41;13.68;;;10.32;;
51981;SDS011;37998;53.416;6.730;2022-11-20T04:36:11;13.40;;;10.07;;
51981;SDS011;37998;53.416;6.730;2022-11-20T04:38:37;12.90;;;10.23;;
51981;SDS011;37998;53.416;6.730;2022-11-20T04:41:04;13.38;;;10.65;;
51981;SDS011;37998;53.416;6.730;2022-11-20T04:43:31;13.70;;;10.85;;
51981;SDS011;37998;53.416;6.730;2022-11-20T04:45:58;15.27;;;11.25;;
51981;SDS011;37998;53.416;6.730;2022-11-20T04:48:25;14.82;;;10.32;;
51981;SDS011;37998;53.416;6.730;2022-11-20T04:50:52;16.48;;;10.43;;
51981;SDS011;37998;53.416;6.730;2022-11-20T04:53:18;16.35;;;11.50;;
51981;SDS011;37998;53.416;6.730;2022-11-20T04:55:44;13.02;;;10.63;;
51981;SDS011;37998;53.416;6.730;2022-11-20T04:58:10;13.55;;;10.60;;
51981;SDS011;37998;53.416;6.730;2022-11-20T05:00:37;14.52;;;11.18;;
51981;SDS011;37998;53.416;6.730;2022-11-20T05:03:02;13.27;;;10.40;;
51981;SDS011;37998;53.416;6.730;2022-11-20T05:05:28;17.08;;;11.43;;
51981;SDS011;37998;53.416;6.730;2022-11-20T05:07:58;15.30;;;10.40;;
51981;SDS011;37998;53.416;6.730;2022-11-20T05:10:24;12.20;;;9.70;;
51981;SDS011;37998;53.416;6.730;2022-11-20T05:12:50;13.38;;;9.82;;
51981;SDS011;37998;53.416;6.730;2022-11-20T05:15:16;13.10;;;9.45;;
51981;SDS011;37998;53.416;6.730;2022-11-20T05:17:46;11.63;;;9.38;;
51981;SDS011;37998;53.416;6.730;2022-11-20T05:20:16;11.57;;;9.23;;
51981;SDS011;37998;53.416;6.730;2022-11-20T05:22:42;12.20;;;9.57;;
51981;SDS011;37998;53.416;6.730;2022-11-20T05:25:08;13.65;;;9.02;;
51981;SDS011;37998;53.416;6.730;2022-11-20T05:27:34;15.95;;;9.85;;
51981;SDS011;37998;53.416;6.730;2022-11-20T05:29:59;14.25;;;9.90;;
51981;SDS011;37998;53.416;6.730;2022-11-20T05:32:25;11.30;;;9.10;;
51981;SDS011;37998;53.416;6.730;2022-11-20T05:34:51;15.57;;;10.35;;
51981;SDS011;37998;53.416;6.730;2022-11-20T05:37:17;13.68;;;9.57;;
51981;SDS011;37998;53.416;6.730;2022-11-20T05:39:43;12.55;;;10.60;;
51981;SDS011;37998;53.416;6.730;2022-11-20T05:42:08;12.32;;;9.55;;
51981;SDS011;37998;53.416;6.730;2022-11-20T05:44:53;12.30;;;9.68;;
51981;SDS011;37998;53.416;6.730;2022-11-20T05:47:18;12.05;;;9.48;;
51981;SDS011;37998;53.416;6.730;2022-11-20T05:49:44;11.60;;;9.32;;
51981;SDS011;37998;53.416;6.730;2022-11-20T05:52:10;14.18;;;9.60;;
51981;SDS011;37998;53.416;6.730;2022-11-20T05:54:35;15.48;;;9.43;;
51981;SDS011;37998;53.416;6.730;2022-11-20T05:57:01;13.32;;;9.63;;
51981;SDS011;37998;53.416;6.730;2022-11-20T05:59:26;12.50;;;9.63;;
51981;SDS011;37998;53.416;6.730;2022-11-20T06:01:52;13.27;;;9.63;;
51981;SDS011;37998;53.416;6.730;2022-11-20T06:04:18;12.00;;;9.25;;
51981;SDS011;37998;53.416;6.730;2022-11-20T06:06:43;10.35;;;9.10;;
51981;SDS011;37998;53.416;6.730;2022-11-20T06:09:09;13.02;;;9.38;;
51981;SDS011;37998;53.416;6.730;2022-11-20T06:11:36;14.70;;;9.40;;
51981;SDS011;37998;53.416;6.730;2022-11-20T06:14:02;11.85;;;9.75;;
51981;SDS011;37998;53.416;6.730;2022-11-20T06:16:27;12.48;;;9.23;;
51981;SDS011;37998;53.416;6.730;2022-11-20T06:18:53;11.75;;;9.45;;
51981;SDS011;37998;53.416;6.730;2022-11-20T06:21:19;12.55;;;9.73;;
51981;SDS011;37998;53.416;6.730;2022-11-20T06:23:46;11.70;;;9.27;;
51981;SDS011;37998;53.416;6.730;2022-11-20T06:26:13;13.38;;;9.90;;
51981;SDS011;37998;53.416;6.730;2022-11-20T06:28:44;12.27;;;10.05;;
51981;SDS011;37998;53.416;6.730;2022-11-20T06:31:10;15.05;;;11.63;;
51981;SDS011;37998;53.416;6.730;2022-11-20T06:33:38;15.55;;;12.52;;
51981;SDS011;37998;53.416;6.730;2022-11-20T06:36:04;12.88;;;10.38;;
51981;SDS011;37998;53.416;6.730;2022-11-20T06:38:30;14.85;;;11.02;;
51981;SDS011;37998;53.416;6.730;2022-11-20T06:40:55;16.25;;;11.80;;
51981;SDS011;37998;53.416;6.730;2022-11-20T06:43:21;15.63;;;12.32;;
51981;SDS011;37998;53.416;6.730;2022-11-20T06:45:54;14.90;;;11.65;;
51981;SDS011;37998;53.416;6.730;2022-11-20T06:48:20;13.07;;;10.35;;
51981;SDS011;37998;53.416;6.730;2022-11-20T06:50:46;13.32;;;10.35;;
51981;SDS011;37998;53.416;6.730;2022-11-20T06:53:12;16.48;;;10.93;;
51981;SDS011;37998;53.416;6.730;2022-11-20T06:55:41;12.98;;;10.27;;
51981;SDS011;37998;53.416;6.730;2022-11-20T06:58:08;13.63;;;10.27;;
51981;SDS011;37998;53.416;6.730;2022-11-20T07:00:34;13.00;;;10.18;;
51981;SDS011;37998;53.416;6.730;2022-11-20T07:03:03;12.90;;;9.95;;
51981;SDS011;37998;53.416;6.730;2022-11-20T07:05:30;13.98;;;10.35;;
51981;SDS011;37998;53.416;6.730;2022-11-20T07:07:56;12.82;;;9.88;;
51981;SDS011;37998;53.416;6.730;2022-11-20T07:10:22;14.20;;;10.52;;
51981;SDS011;37998;53.416;6.730;2022-11-20T07:12:51;14.35;;;10.32;;
51981;SDS011;37998;53.416;6.730;2022-11-20T07:15:18;14.55;;;10.82;;
51981;SDS011;37998;53.416;6.730;2022-11-20T07:17:44;15.13;;;10.90;;
51981;SDS011;37998;53.416;6.730;2022-11-20T07:20:10;14.77;;;10.98;;
51981;SDS011;37998;53.416;6.730;2022-11-20T07:22:36;12.73;;;9.55;;
51981;SDS011;37998;53.416;6.730;2022-11-20T07:25:02;13.38;;;10.45;;
51981;SDS011;37998;53.416;6.730;2022-11-20T07:27:28;13.65;;;10.55;;
51981;SDS011;37998;53.416;6.730;2022-11-20T07:29:54;17.58;;;10.50;;
51981;SDS011;37998;53.416;6.730;2022-11-20T07:32:20;12.82;;;10.15;;
51981;SDS011;37998;53.416;6.730;2022-11-20T07:34:47;15.52;;;9.57;;
51981;SDS011;37998;53.416;6.730;2022-11-20T07:37:13;13.68;;;11.05;;
51981;SDS011;37998;53.416;6.730;2022-11-20T07:39:40;14.15;;;10.85;;
51981;SDS011;37998;53.416;6.730;2022-11-20T07:42:05;16.60;;;12.60;;
51981;SDS011;37998;53.416;6.730;2022-11-20T07:44:31;14.57;;;11.73;;
51981;SDS011;37998;53.416;6.730;2022-11-20T07:46:57;13.38;;;10.43;;
51981;SDS011;37998;53.416;6.730;2022-11-20T07:49:23;14.20;;;10.52;;
51981;SDS011;37998;53.416;6.730;2022-11-20T07:51:51;19.85;;;11.20;;
51981;SDS011;37998;53.416;6.730;2022-11-20T07:54:20;13.68;;;10.32;;
51981;SDS011;37998;53.416;6.730;2022-11-20T07:56:47;15.88;;;10.82;;
51981;SDS011;37998;53.416;6.730;2022-11-20T07:59:13;13.02;;;10.13;;
51981;SDS011;37998;53.416;6.730;2022-11-20T08:01:39;13.73;;;10.55;;
51981;SDS011;37998;53.416;6.730;2022-11-20T08:04:05;13.15;;;10.57;;
51981;SDS011;37998;53.416;6.730;2022-11-20T08:06:31;13.15;;;10.25;;
51981;SDS011;37998;53.416;6.730;2022-11-20T08:08:57;14.00;;;10.13;;
51981;SDS011;37998;53.416;6.730;2022-11-20T08:11:23;14.30;;;10.23;;
51981;SDS011;37998;53.416;6.730;2022-11-20T08:14:07;13.30;;;10.18;;
51981;SDS011;37998;53.416;6.730;2022-11-20T08:16:39;13.13;;;9.95;;
51981;SDS011;37998;53.416;6.730;2022-11-20T08:19:06;11.93;;;9.07;;
51981;SDS011;37998;53.416;6.730;2022-11-20T08:21:32;10.63;;;8.55;;
51981;SDS011;37998;53.416;6.730;2022-11-20T08:23:58;12.50;;;9.27;;
51981;SDS011;37998;53.416;6.730;2022-11-20T08:26:24;11.48;;;9.02;;
51981;SDS011;37998;53.416;6.730;2022-11-20T08:28:54;9.75;;;8.02;;
51981;SDS011;37998;53.416;6.730;2022-11-20T08:31:21;14.90;;;10.80;;
51981;SDS011;37998;53.416;6.730;2022-11-20T08:33:48;10.48;;;7.68;;
51981;SDS011;37998;53.416;6.730;2022-11-20T08:36:14;12.68;;;10.18;;
51981;SDS011;37998;53.416;6.730;2022-11-20T08:38:39;7.93;;;7.00;;
51981;SDS011;37998;53.416;6.730;2022-11-20T08:41:05;6.88;;;5.45;;
51981;SDS011;37998;53.416;6.730;2022-11-20T08:43:51;7.88;;;4.65;;
51981;SDS011;37998;53.416;6.730;2022-11-20T08:48:50;5.85;;;4.97;;
51981;SDS011;37998;53.416;6.730;2022-11-20T08:51:16;4.75;;;4.25;;
51981;SDS011;37998;53.416;6.730;2022-11-20T08:53:42;5.57;;;4.10;;
51981;SDS011;37998;53.416;6.730;2022-11-20T08:56:08;5.05;;;4.15;;
51981;SDS011;37998;53.416;6.730;2022-11-20T08:58:34;31.15;;;21.55;;
51981;SDS011;37998;53.416;6.730;2022-11-20T09:01:01;13.23;;;8.77;;
51981;SDS011;37998;53.416;6.730;2022-11-20T09:03:26;19.50;;;11.35;;
51981;SDS011;37998;53.416;6.730;2022-11-20T09:05:59;21.23;;;12.10;;
51981;SDS011;37998;53.416;6.730;2022-11-20T09:08:26;5.25;;;4.38;;
51981;SDS011;37998;53.416;6.730;2022-11-20T09:10:52;5.75;;;5.05;;
51981;SDS011;37998;53.416;6.730;2022-11-20T09:13:19;6.10;;;5.45;;
51981;SDS011;37998;53.416;6.730;2022-11-20T09:15:45;4.35;;;3.67;;
51981;SDS011;37998;53.416;6.730;2022-11-20T09:18:11;3.95;;;3.55;;
51981;SDS011;37998;53.416;6.730;2022-11-20T09:20:37;5.15;;;3.95;;
51981;SDS011;37998;53.416;6.730;2022-11-20T09:23:03;4.20;;;3.55;;
51981;SDS011;37998;53.416;6.730;2022-11-20T09:25:29;4.05;;;3.53;;
51981;SDS011;37998;53.416;6.730;2022-11-20T09:27:55;3.58;;;3.28;;
51981;SDS011;37998;53.416;6.730;2022-11-20T09:30:24;3.75;;;3.35;;
51981;SDS011;37998;53.416;6.730;2022-11-20T09:32:50;4.55;;;3.33;;
51981;SDS011;37998;53.416;6.730;2022-11-20T09:35:16;3.53;;;2.90;;
51981;SDS011;37998;53.416;6.730;2022-11-20T09:37:43;3.88;;;3.20;;
51981;SDS011;37998;53.416;6.730;2022-11-20T09:40:27;5.13;;;3.58;;
51981;SDS011;37998;53.416;6.730;2022-11-20T09:45:49;4.20;;;3.60;;
51981;SDS011;37998;53.416;6.730;2022-11-20T09:48:46;4.15;;;3.50;;
51981;SDS011;37998;53.416;6.730;2022-11-20T09:51:35;6.03;;;3.72;;
51981;SDS011;37998;53.416;6.730;2022-11-20T09:57:04;6.75;;;4.38;;
51981;SDS011;37998;53.416;6.730;2022-11-20T09:59:37;5.45;;;4.28;;
51981;SDS011;37998;53.416;6.730;2022-11-20T10:04:57;5.13;;;4.07;;
51981;SDS011;37998;53.416;6.730;2022-11-20T10:07:33;5.95;;;5.03;;
51981;SDS011;37998;53.416;6.730;2022-11-20T10:10:16;9.77;;;5.38;;
51981;SDS011;37998;53.416;6.730;2022-11-20T10:12:59;9.20;;;6.05;;
51981;SDS011;37998;53.416;6.730;2022-11-20T10:20:43;10.20;;;8.32;;
51981;SDS011;37998;53.416;6.730;2022-11-20T10:23:45;11.57;;;8.15;;
51981;SDS011;37998;53.416;6.730;2022-11-20T10:26:29;12.60;;;8.23;;
51981;SDS011;37998;53.416;6.730;2022-11-20T10:29:14;11.60;;;8.07;;
51981;SDS011;37998;53.416;6.730;2022-11-20T10:36:49;11.75;;;8.55;;
51981;SDS011;37998;53.416;6.730;2022-11-20T10:40:05;12.10;;;8.27;;
51981;SDS011;37998;53.416;6.730;2022-11-20T10:50:32;11.15;;;8.43;;
51981;SDS011;37998;53.416;6.730;2022-11-20T10:53:05;14.93;;;9.02;;
51981;SDS011;37998;53.416;6.730;2022-11-20T10:55:56;11.85;;;9.00;;
51981;SDS011;37998;53.416;6.730;2022-11-20T10:58:38;11.32;;;9.10;;
51981;SDS011;37998;53.416;6.730;2022-11-20T11:01:28;11.57;;;8.77;;
51981;SDS011;37998;53.416;6.730;2022-11-20T11:03:54;11.50;;;8.60;;
51981;SDS011;37998;53.416;6.730;2022-11-20T11:06:35;10.38;;;9.00;;
51981;SDS011;37998;53.416;6.730;2022-11-20T11:09:21;12.50;;;9.75;;
51981;SDS011;37998;53.416;6.730;2022-11-20T11:11:57;10.95;;;9.15;;
51981;SDS011;37998;53.416;6.730;2022-11-20T11:14:22;9.68;;;8.02;;
51981;SDS011;37998;53.416;6.730;2022-11-20T11:16:53;10.23;;;8.27;;
51981;SDS011;37998;53.416;6.730;2022-11-20T11:19:20;11.95;;;8.20;;
51981;SDS011;37998;53.416;6.730;2022-11-20T11:21:53;11.18;;;8.30;;
51981;SDS011;37998;53.416;6.730;2022-11-20T11:24:28;10.52;;;9.10;;
51981;SDS011;37998;53.416;6.730;2022-11-20T11:26:58;11.10;;;8.63;;
51981;SDS011;37998;53.416;6.730;2022-11-20T11:29:34;10.43;;;8.50;;
51981;SDS011;37998;53.416;6.730;2022-11-20T11:32:04;10.07;;;8.30;;
51981;SDS011;37998;53.416;6.730;2022-11-20T11:34:33;10.38;;;8.30;;
51981;SDS011;37998;53.416;6.730;2022-11-20T11:36:59;12.98;;;8.25;;
51981;SDS011;37998;53.416;6.730;2022-11-20T11:39:27;12.45;;;8.10;;
51981;SDS011;37998;53.416;6.730;2022-11-20T11:41:55;11.57;;;9.02;;
51981;SDS011;37998;53.416;6.730;2022-11-20T11:44:21;12.65;;;9.75;;
51981;SDS011;37998;53.416;6.730;2022-11-20T11:47:29;11.32;;;8.63;;
51981;SDS011;37998;53.416;6.730;2022-11-20T11:50:02;11.10;;;7.68;;
51981;SDS011;37998;53.416;6.730;2022-11-20T12:01:10;11.10;;;8.35;;
51981;SDS011;37998;53.416;6.730;2022-11-20T12:03:52;11.55;;;8.35;;
51981;SDS011;37998;53.416;6.730;2022-11-20T12:06:35;11.80;;;9.57;;
51981;SDS011;37998;53.416;6.730;2022-11-20T12:09:04;13.73;;;8.90;;
51981;SDS011;37998;53.416;6.730;2022-11-20T12:16:59;14.32;;;8.88;;
51981;SDS011;37998;53.416;6.730;2022-11-20T12:19:26;11.32;;;8.98;;
51981;SDS011;37998;53.416;6.730;2022-11-20T12:35:14;15.77;;;11.10;;
51981;SDS011;37998;53.416;6.730;2022-11-20T12:44:38;12.25;;;9.68;;
51981;SDS011;37998;53.416;6.730;2022-11-20T12:46:51;12.43;;;9.95;;
51981;SDS011;37998;53.416;6.730;2022-11-20T12:49:54;12.18;;;8.75;;
51981;SDS011;37998;53.416;6.730;2022-11-20T12:55:20;10.98;;;8.98;;
51981;SDS011;37998;53.416;6.730;2022-11-20T12:58:09;10.77;;;8.88;;
51981;SDS011;37998;53.416;6.730;2022-11-20T13:00:53;9.93;;;8.27;;
51981;SDS011;37998;53.416;6.730;2022-11-20T13:03:42;10.40;;;8.02;;
51981;SDS011;37998;53.416;6.730;2022-11-20T13:06:17;10.30;;;7.95;;
51981;SDS011;37998;53.416;6.730;2022-11-20T13:08:53;10.48;;;8.52;;
51981;SDS011;37998;53.416;6.730;2022-11-20T13:18:45;10.65;;;8.13;;
51981;SDS011;37998;53.416;6.730;2022-11-20T13:21:34;10.98;;;9.07;;
51981;SDS011;37998;53.416;6.730;2022-11-20T13:24:05;11.20;;;8.60;;
51981;SDS011;37998;53.416;6.730;2022-11-20T13:26:32;10.02;;;8.30;;
51981;SDS011;37998;53.416;6.730;2022-11-20T13:28:59;10.40;;;8.15;;
51981;SDS011;37998;53.416;6.730;2022-11-20T13:31:38;9.02;;;7.40;;
51981;SDS011;37998;53.416;6.730;2022-11-20T13:34:09;8.35;;;6.82;;
51981;SDS011;37998;53.416;6.730;2022-11-20T13:36:38;8.73;;;6.78;;
51981;SDS011;37998;53.416;6.730;2022-11-20T13:39:23;8.77;;;7.20;;
51981;SDS011;37998;53.416;6.730;2022-11-20T13:42:39;9.10;;;7.88;;
51981;SDS011;37998;53.416;6.730;2022-11-20T13:44:41;10.55;;;8.02;;
51981;SDS011;37998;53.416;6.730;2022-11-20T13:47:28;9.10;;;7.50;;
51981;SDS011;37998;53.416;6.730;2022-11-20T13:49:57;8.05;;;6.88;;
51981;SDS011;37998;53.416;6.730;2022-11-20T13:58:19;8.23;;;7.15;;
51981;SDS011;37998;53.416;6.730;2022-11-20T14:01:09;10.65;;;7.75;;
51981;SDS011;37998;53.416;6.730;2022-11-20T14:03:35;8.82;;;7.50;;
51981;SDS011;37998;53.416;6.730;2022-11-20T14:06:03;8.75;;;7.10;;
51981;SDS011;37998;53.416;6.730;2022-11-20T14:08:37;9.65;;;7.85;;
51981;SDS011;37998;53.416;6.730;2022-11-20T14:11:04;9.57;;;7.60;;
51981;SDS011;37998;53.416;6.730;2022-11-20T14:13:30;10.27;;;7.53;;
51981;SDS011;37998;53.416;6.730;2022-11-20T14:15:59;9.32;;;7.57;;
51981;SDS011;37998;53.416;6.730;2022-11-20T14:18:25;9.43;;;7.88;;
51981;SDS011;37998;53.416;6.730;2022-11-20T14:20:51;9.02;;;7.40;;
51981;SDS011;37998;53.416;6.730;2022-11-20T14:23:27;10.35;;;8.68;;
51981;SDS011;37998;53.416;6.730;2022-11-20T14:25:53;14.32;;;8.40;;
51981;SDS011;37998;53.416;6.730;2022-11-20T14:28:26;12.00;;;8.02;;
51981;SDS011;37998;53.416;6.730;2022-11-20T14:30:53;9.02;;;6.80;;
51981;SDS011;37998;53.416;6.730;2022-11-20T14:33:20;11.00;;;7.30;;
51981;SDS011;37998;53.416;6.730;2022-11-20T14:35:53;8.88;;;7.03;;
51981;SDS011;37998;53.416;6.730;2022-11-20T14:38:22;8.55;;;7.63;;
51981;SDS011;37998;53.416;6.730;2022-11-20T14:40:51;9.45;;;7.00;;
51981;SDS011;37998;53.416;6.730;2022-11-20T14:43:22;8.70;;;6.72;;
51981;SDS011;37998;53.416;6.730;2022-11-20T14:45:55;7.65;;;5.47;;
51981;SDS011;37998;53.416;6.730;2022-11-20T14:48:33;8.82;;;6.00;;
51981;SDS011;37998;53.416;6.730;2022-11-20T14:51:57;7.78;;;5.55;;
51981;SDS011;37998;53.416;6.730;2022-11-20T14:56:53;6.85;;;5.68;;
51981;SDS011;37998;53.416;6.730;2022-11-20T14:59:26;8.63;;;6.53;;
51981;SDS011;37998;53.416;6.730;2022-11-20T15:01:57;8.98;;;7.20;;
51981;SDS011;37998;53.416;6.730;2022-11-20T15:04:26;7.97;;;7.17;;
51981;SDS011;37998;53.416;6.730;2022-11-20T15:06:53;9.77;;;7.68;;
51981;SDS011;37998;53.416;6.730;2022-11-20T15:09:20;10.20;;;8.43;;
51981;SDS011;37998;53.416;6.730;2022-11-20T15:11:57;11.40;;;7.47;;
51981;SDS011;37998;53.416;6.730;2022-11-20T15:14:25;10.27;;;8.35;;
51981;SDS011;37998;53.416;6.730;2022-11-20T15:16:52;11.30;;;8.60;;
51981;SDS011;37998;53.416;6.730;2022-11-20T15:19:20;10.70;;;8.02;;
51981;SDS011;37998;53.416;6.730;2022-11-20T15:21:48;12.85;;;9.18;;
51981;SDS011;37998;53.416;6.730;2022-11-20T15:24:14;12.65;;;9.15;;
51981;SDS011;37998;53.416;6.730;2022-11-20T15:26:40;14.23;;;8.90;;
51981;SDS011;37998;53.416;6.730;2022-11-20T15:29:13;10.30;;;8.43;;
51981;SDS011;37998;53.416;6.730;2022-11-20T15:31:43;10.05;;;7.70;;
51981;SDS011;37998;53.416;6.730;2022-11-20T15:34:16;9.05;;;7.22;;
51981;SDS011;37998;53.416;6.730;2022-11-20T15:36:42;11.43;;;7.63;;
51981;SDS011;37998;53.416;6.730;2022-11-20T15:39:08;9.75;;;7.78;;
51981;SDS011;37998;53.416;6.730;2022-11-20T15:41:36;11.30;;;8.30;;
51981;SDS011;37998;53.416;6.730;2022-11-20T15:44:03;11.50;;;7.63;;
51981;SDS011;37998;53.416;6.730;2022-11-20T15:46:33;9.55;;;7.50;;
51981;SDS011;37998;53.416;6.730;2022-11-20T15:49:03;10.98;;;7.68;;
51981;SDS011;37998;53.416;6.730;2022-11-20T15:51:30;9.88;;;8.32;;
51981;SDS011;37998;53.416;6.730;2022-11-20T15:54:08;12.35;;;10.05;;
51981;SDS011;37998;53.416;6.730;2022-11-20T15:56:35;10.38;;;7.40;;
51981;SDS011;37998;53.416;6.730;2022-11-20T15:59:00;12.77;;;7.95;;
51981;SDS011;37998;53.416;6.730;2022-11-20T16:01:26;8.63;;;7.18;;
51981;SDS011;37998;53.416;6.730;2022-11-20T16:03:52;9.70;;;7.40;;
51981;SDS011;37998;53.416;6.730;2022-11-20T16:06:17;11.77;;;9.10;;
51981;SDS011;37998;53.416;6.730;2022-11-20T16:08:43;9.95;;;6.75;;
51981;SDS011;37998;53.416;6.730;2022-11-20T16:11:12;8.90;;;6.57;;
51981;SDS011;37998;53.416;6.730;2022-11-20T16:13:39;10.00;;;6.70;;